Time;durP1;ratioP1;P1;durP2;ratioP2;P2;SDS_P1;SDS_P2;PMS_P1;PMS_P2;Temp;Humidity;BMP_temperature;BMP_pressure;BME280_temperature;BME280_humidity;BME280_pressure;Samples;Min_cycle;Max_cycle;Signal;HPM_P1;HPM_P2
2021/10/14 00:02:24;;;;;;;;;;;;;;;7.48;64.06;101431.88;4921250;28;128247;-58
2021/10/14 00:04:50;;;;;;;;;;;;;;;7.50;64.22;101447.75;4921661;28;127949;-57
2021/10/14 00:07:16;;;;;;;;;;;;;;;7.51;64.03;101452.09;4936025;28;127260;-58
2021/10/14 00:09:42;;;;;;;;;;;;;;;7.52;64.23;101454.53;4922079;28;117689;-56
2021/10/14 00:12:07;;;;;;;;;;;;;;;7.55;64.55;101458.66;4921780;28;128168;-57
2021/10/14 00:14:33;;;;;;;;;;;;;;;7.55;64.23;101451.41;4936458;28;127891;-58
2021/10/14 00:16:59;;;;;;;;;;;;;;;7.57;64.50;101452.00;4921439;28;127656;-58
2021/10/14 00:19:25;;;;;;;;;;;;;;;7.59;64.46;101451.78;4922605;28;98064;-60
2021/10/14 00:21:51;;;;;;;;;;;;;;;7.61;64.74;101452.38;4921736;28;100694;-58
2021/10/14 00:24:17;;;;;;;;;;;;;;;7.63;64.65;101442.25;4921078;28;128287;-58
2021/10/14 00:26:43;;;;;;;;;;;;;;;7.65;64.47;101445.50;4922207;28;125831;-58
2021/10/14 00:29:09;;;;;;;;;;;;;;;7.66;64.70;101443.63;4903264;28;118068;-57
2021/10/14 00:31:35;;;;;;;;;;;;;;;7.67;64.66;101446.13;4921947;28;110769;-58
2021/10/14 00:34:01;;;;;;;;;;;;;;;7.68;64.81;101439.69;4921106;28;121362;-58
2021/10/14 00:36:27;;;;;;;;;;;;;;;7.70;64.69;101429.53;4921982;28;129458;-58
2021/10/14 00:38:52;;;;;;;;;;;;;;;7.71;64.91;101428.53;4936816;28;116235;-58
2021/10/14 00:41:18;;;;;;;;;;;;;;;7.73;64.71;101425.59;4921199;28;128050;-57
2021/10/14 00:43:44;;;;;;;;;;;;;;;7.74;65.05;101424.53;4921473;28;105043;-58
2021/10/14 00:46:16;;;;;;;;;;;;;;;7.75;64.81;101420.84;4921541;28;128079;-59
2021/10/14 00:48:42;;;;;;;;;;;;;;;7.76;64.97;101419.78;4920706;28;97810;-58
2021/10/14 00:51:09;;;;;;;;;;;;;;;7.76;65.01;101409.06;4921424;28;98508;-56
2021/10/14 00:53:38;;;;;;;;;;;;;;;7.78;65.10;101409.63;4920511;28;119321;-58
2021/10/14 00:56:05;;;;;;;;;;;;;;;7.77;65.16;101411.50;4922436;28;97861;-58
2021/10/14 00:58:32;;;;;;;;;;;;;;;7.78;65.19;101399.75;4919294;28;98072;-58
2021/10/14 01:00:59;;;;;;;;;;;;;;;7.78;65.29;101405.09;4903882;28;115196;-57
2021/10/14 01:03:25;;;;;;;;;;;;;;;7.81;65.33;101415.38;4935266;28;103039;-58
2021/10/14 01:05:50;;;;;;;;;;;;;;;7.78;65.95;101402.44;4921451;28;125595;-56
2021/10/14 01:08:16;;;;;;;;;;;;;;;7.83;65.86;101404.44;4902576;28;117573;-58
2021/10/14 01:10:42;;;;;;;;;;;;;;;7.84;65.70;101409.56;4921135;28;122192;-56
2021/10/14 01:13:08;;;;;;;;;;;;;;;7.85;65.93;101395.09;4919832;28;127402;-57
2021/10/14 01:15:34;;;;;;;;;;;;;;;7.86;65.72;101404.78;4920244;28;127238;-58
2021/10/14 01:18:00;;;;;;;;;;;;;;;7.87;66.12;101398.38;4924985;28;117645;-58
2021/10/14 01:20:26;;;;;;;;;;;;;;;7.87;65.86;101394.88;4924637;28;127457;-58
2021/10/14 01:22:52;;;;;;;;;;;;;;;7.90;66.03;101398.94;4924297;28;98794;-57
2021/10/14 01:25:18;;;;;;;;;;;;;;;7.88;66.28;101391.94;4925152;28;97755;-58
2021/10/14 01:27:44;;;;;;;;;;;;;;;7.90;66.18;101397.09;4928108;28;97919;-58
2021/10/14 01:30:11;;;;;;;;;;;;;;;7.91;66.27;101400.59;4924762;28;98025;-58
2021/10/14 01:32:37;;;;;;;;;;;;;;;7.92;66.23;101399.56;4924201;28;101830;-60
2021/10/14 01:35:04;;;;;;;;;;;;;;;7.92;66.48;101395.00;4923791;28;127846;-56
2021/10/14 01:37:30;;;;;;;;;;;;;;;7.93;66.27;101388.56;4924010;28;97885;-56
2021/10/14 01:39:56;;;;;;;;;;;;;;;7.94;66.23;101392.94;4924665;28;98141;-58
2021/10/14 01:42:22;;;;;;;;;;;;;;;7.95;66.36;101385.69;4923147;28;126983;-57
2021/10/14 01:44:48;;;;;;;;;;;;;;;7.96;66.03;101385.44;4925197;28;97936;-58
2021/10/14 01:47:14;;;;;;;;;;;;;;;7.97;66.36;101389.75;4923758;28;117705;-58
2021/10/14 01:49:40;;;;;;;;;;;;;;;7.98;66.62;101395.97;4939430;28;98591;-57
2021/10/14 01:52:05;;;;;;;;;;;;;;;7.97;66.57;101389.75;4925237;28;98437;-58
2021/10/14 01:54:31;;;;;;;;;;;;;;;7.99;66.76;101390.38;4923858;28;127508;-56
2021/10/14 01:56:57;;;;;;;;;;;;;;;7.99;66.68;101382.31;4924043;28;105575;-58
2021/10/14 01:59:23;;;;;;;;;;;;;;;8.00;66.75;101388.50;4923199;28;128837;-58
2021/10/14 02:01:49;;;;;;;;;;;;;;;8.00;66.51;101389.31;4924209;28;128343;-58
2021/10/14 02:04:15;;;;;;;;;;;;;;;8.00;66.83;101386.63;4923285;28;124717;-60
2021/10/14 02:06:41;;;;;;;;;;;;;;;8.02;67.14;101395.28;4924409;28;117808;-56
2021/10/14 02:09:07;;;;;;;;;;;;;;;8.02;66.80;101387.22;4923080;28;125416;-58
2021/10/14 02:11:33;;;;;;;;;;;;;;;8.02;66.80;101394.47;4924476;28;98597;-58
2021/10/14 02:13:59;;;;;;;;;;;;;;;8.03;66.97;101388.03;4924047;28;98396;-58
2021/10/14 02:16:25;;;;;;;;;;;;;;;8.02;66.91;101389.91;4925098;28;97555;-57
2021/10/14 02:18:51;;;;;;;;;;;;;;;8.01;66.95;101390.94;4923377;28;117121;-58
2021/10/14 02:21:17;;;;;;;;;;;;;;;8.03;67.24;101386.19;4923633;28;98942;-58
2021/10/14 02:23:43;;;;;;;;;;;;;;;8.05;67.30;101386.75;4923514;28;97800;-58
2021/10/14 02:26:09;;;;;;;;;;;;;;;8.06;67.27;101390.28;4923896;28;116613;-56
2021/10/14 02:28:35;;;;;;;;;;;;;;;8.07;67.30;101392.72;4922284;28;120214;-56
2021/10/14 02:31:01;;;;;;;;;;;;;;;8.07;67.35;101394.59;4922713;28;127028;-58
2021/10/14 02:33:27;;;;;;;;;;;;;;;8.09;67.54;101390.63;4922579;28;127492;-58
2021/10/14 02:35:53;;;;;;;;;;;;;;;8.10;67.39;101386.91;4924251;28;116928;-58
2021/10/14 02:38:19;;;;;;;;;;;;;;;8.11;67.52;101380.47;4923625;28;107115;-56
2021/10/14 02:40:45;;;;;;;;;;;;;;;8.12;67.27;101381.28;4923585;28;99175;-58
2021/10/14 02:43:11;;;;;;;;;;;;;;;8.12;67.08;101371.38;4922369;28;124749;-58
2021/10/14 02:45:37;;;;;;;;;;;;;;;8.14;67.48;101373.03;4922900;28;116303;-57
2021/10/14 02:48:02;;;;;;;;;;;;;;;8.14;67.70;101371.16;4922851;28;126713;-58
2021/10/14 02:50:28;;;;;;;;;;;;;;;8.15;67.58;101374.66;4923563;28;127952;-58
2021/10/14 02:52:54;;;;;;;;;;;;;;;8.17;67.51;101380.59;4922459;28;128473;-57
2021/10/14 02:55:20;;;;;;;;;;;;;;;8.15;67.71;101375.47;4922949;28;116145;-57
2021/10/14 02:57:46;;;;;;;;;;;;;;;8.16;67.79;101377.09;4922490;28;128108;-58
2021/10/14 03:00:12;;;;;;;;;;;;;;;8.17;67.70;101375.22;4923097;28;128127;-57
2021/10/14 03:02:38;;;;;;;;;;;;;;;8.17;67.93;101378.72;4921357;28;111448;-57
2021/10/14 03:05:04;;;;;;;;;;;;;;;8.18;67.54;101376.91;4923292;28;116745;-56
2021/10/14 03:07:30;;;;;;;;;;;;;;;8.19;67.57;101373.97;4923226;28;98267;-58
2021/10/14 03:09:56;;;;;;;;;;;;;;;8.20;67.91;101369.41;4922157;28;127202;-57
2021/10/14 03:12:22;;;;;;;;;;;;;;;8.20;67.98;101374.78;4922141;28;125652;-59
2021/10/14 03:14:48;;;;;;;;;;;;;;;8.20;68.32;101364.84;4922515;28;116305;-58
2021/10/14 03:17:14;;;;;;;;;;;;;;;8.22;67.77;101368.16;4922005;28;127008;-58
2021/10/14 03:19:40;;;;;;;;;;;;;;;8.22;68.12;101362.78;4922919;28;113229;-58
2021/10/14 03:22:06;;;;;;;;;;;;;;;8.24;68.11;101367.91;4919640;28;128080;-60
2021/10/14 03:24:32;;;;;;;;;;;;;;;8.24;68.30;101371.41;4905691;28;97812;-60
2021/10/14 03:26:58;;;;;;;;;;;;;;;8.23;68.03;101364.41;4921554;28;127988;-58
2021/10/14 03:29:24;;;;;;;;;;;;;;;8.25;68.32;101367.69;4936906;28;122357;-56
2021/10/14 03:31:50;;;;;;;;;;;;;;;8.26;68.22;101365.81;4922146;28;127727;-58
2021/10/14 03:34:16;;;;;;;;;;;;;;;8.25;68.65;101366.84;4921284;28;117849;-57
2021/10/14 03:36:41;;;;;;;;;;;;;;;8.26;68.41;101369.31;4922450;28;128102;-57
2021/10/14 03:39:07;;;;;;;;;;;;;;;8.27;68.48;101372.81;4920888;28;127635;-58
2021/10/14 03:41:33;;;;;;;;;;;;;;;8.27;68.09;101364.75;4922989;28;128461;-57
2021/10/14 03:43:59;;;;;;;;;;;;;;;8.29;68.40;101373.41;4921598;28;117381;-58
2021/10/14 03:46:25;;;;;;;;;;;;;;;8.28;68.29;101366.41;4922358;28;127501;-57
2021/10/14 03:48:51;;;;;;;;;;;;;;;8.28;68.40;101371.75;4921757;28;127243;-57
2021/10/14 03:51:17;;;;;;;;;;;;;;;8.28;68.36;101369.91;4922310;28;127508;-58
2021/10/14 03:53:43;;;;;;;;;;;;;;;8.30;68.79;101365.13;4937554;28;98010;-57
2021/10/14 03:56:09;;;;;;;;;;;;;;;8.32;68.83;101370.25;4922683;28;98565;-56
2021/10/14 03:58:35;;;;;;;;;;;;;;;8.32;68.79;101367.56;4921187;28;114779;-57
2021/10/14 04:01:01;;;;;;;;;;;;;;;8.32;68.60;101368.38;4921310;28;127681;-58
2021/10/14 04:03:26;;;;;;;;;;;;;;;8.33;68.92;101369.19;4921673;28;102273;-57
2021/10/14 04:05:52;;;;;;;;;;;;;;;8.33;68.53;101363.81;4921505;28;113538;-58
2021/10/14 04:08:18;;;;;;;;;;;;;;;8.33;68.69;101361.13;4922826;28;98448;-57
2021/10/14 04:10:44;;;;;;;;;;;;;;;8.34;68.86;101362.78;4922478;28;98019;-56
2021/10/14 04:13:10;;;;;;;;;;;;;;;8.32;68.82;101360.31;4921655;28;117454;-57
2021/10/14 04:15:36;;;;;;;;;;;;;;;8.34;68.54;101357.44;4921729;28;128748;-57
2021/10/14 04:18:02;;;;;;;;;;;;;;;8.34;68.84;101366.31;4921763;28;126722;-57
2021/10/14 04:20:28;;;;;;;;;;;;;;;8.36;68.96;101366.06;4922922;28;97946;-58
2021/10/14 04:22:54;;;;;;;;;;;;;;;8.35;68.93;101349.13;4920941;28;109567;-57
2021/10/14 04:25:20;;;;;;;;;;;;;;;8.36;68.94;101356.13;4921344;28;99075;-57
2021/10/14 04:27:46;;;;;;;;;;;;;;;8.37;68.93;101359.69;4921895;28;98652;-58
2021/10/14 04:30:12;;;;;;;;;;;;;;;8.38;69.22;101358.63;4921934;28;98247;-57
2021/10/14 04:32:39;;;;;;;;;;;;;;;8.38;69.07;101355.94;4921686;28;117739;-57
2021/10/14 04:35:05;;;;;;;;;;;;;;;8.37;69.41;101357.00;4936467;28;99044;-58
2021/10/14 04:37:31;;;;;;;;;;;;;;;8.38;69.17;101355.94;4922259;28;99016;-56
2021/10/14 04:39:57;;;;;;;;;;;;;;;8.39;69.47;101357.56;4924552;28;98518;-56
2021/10/14 04:42:23;;;;;;;;;;;;;;;8.41;69.32;101350.13;4921821;28;97741;-57
2021/10/14 04:44:49;;;;;;;;;;;;;;;8.42;69.21;101342.88;4920630;28;129723;-58
2021/10/14 04:47:18;;;;;;;;;;;;;;;8.42;69.53;101341.00;4920015;28;128626;-58
2021/10/14 04:49:45;;;;;;;;;;;;;;;8.44;69.18;101338.88;4921404;28;98136;-57
2021/10/14 04:52:11;;;;;;;;;;;;;;;8.45;69.19;101331.63;4921526;28;97863;-57
2021/10/14 04:54:37;;;;;;;;;;;;;;;8.44;68.92;101336.19;4921417;28;113002;-56
2021/10/14 04:57:03;;;;;;;;;;;;;;;8.45;69.44;101337.00;4920701;28;126947;-57
2021/10/14 04:59:29;;;;;;;;;;;;;;;8.44;69.66;101336.19;4921178;28;127902;-56
2021/10/14 05:01:55;;;;;;;;;;;;;;;8.44;69.63;101330.81;4921627;28;117386;-57
2021/10/14 05:04:21;;;;;;;;;;;;;;;8.43;69.12;101329.19;4921110;28;125839;-57
2021/10/14 05:06:47;;;;;;;;;;;;;;;8.42;69.50;101335.63;4920772;28;128065;-58
2021/10/14 05:09:13;;;;;;;;;;;;;;;8.42;69.47;101327.56;4920535;28;126782;-58
2021/10/14 05:11:38;;;;;;;;;;;;;;;8.41;69.94;101323.25;4920240;28;116536;-58
2021/10/14 05:14:04;;;;;;;;;;;;;;;8.43;69.52;101323.81;4918947;28;126111;-57
2021/10/14 05:16:32;;;;;;;;;;;;;;;8.44;69.99;101330.00;4903350;28;98491;-58
2021/10/14 05:18:59;;;;;;;;;;;;;;;8.45;69.64;101328.94;4920573;28;98013;-58
2021/10/14 05:21:26;;;;;;;;;;;;;;;8.45;69.87;101324.41;4921872;28;97742;-58
2021/10/14 05:23:51;;;;;;;;;;;;;;;8.45;70.03;101321.72;4935569;28;98834;-58
2021/10/14 05:26:17;;;;;;;;;;;;;;;8.46;69.70;101318.00;4920624;28;128205;-58
2021/10/14 05:28:43;;;;;;;;;;;;;;;8.48;69.72;101321.25;4920786;28;127133;-56
2021/10/14 05:31:09;;;;;;;;;;;;;;;8.48;69.76;101312.38;4920869;28;116833;-58
2021/10/14 05:33:37;;;;;;;;;;;;;;;8.51;69.81;101328.03;4920831;28;128070;-58
2021/10/14 05:36:03;;;;;;;;;;;;;;;8.52;70.19;101318.91;4921307;28;99768;-56
2021/10/14 05:38:29;;;;;;;;;;;;;;;8.52;70.44;101319.72;4920024;28;113022;-56
2021/10/14 05:40:54;;;;;;;;;;;;;;;8.53;69.76;101329.44;4921065;28;109224;-58
2021/10/14 05:43:20;;;;;;;;;;;;;;;8.52;70.24;101310.84;4920812;28;126525;-57
2021/10/14 05:45:46;;;;;;;;;;;;;;;8.54;69.79;101317.63;4920653;28;128425;-58
2021/10/14 05:48:12;;;;;;;;;;;;;;;8.55;70.07;101316.59;4920758;28;127678;-58
2021/10/14 05:50:38;;;;;;;;;;;;;;;8.55;69.98;101316.59;4921014;28;117550;-56
2021/10/14 05:53:04;;;;;;;;;;;;;;;8.56;70.03;101320.91;4920880;28;111388;-57
2021/10/14 05:55:30;;;;;;;;;;;;;;;8.56;70.25;101314.72;4921101;28;128148;-57
2021/10/14 05:57:56;;;;;;;;;;;;;;;8.57;70.06;101319.06;4887462;28;98208;-58
2021/10/14 06:00:22;;;;;;;;;;;;;;;8.58;70.73;101316.13;4902499;28;117762;-57
2021/10/14 06:02:48;;;;;;;;;;;;;;;8.59;70.37;101311.56;4922707;28;127196;-58
2021/10/14 06:05:14;;;;;;;;;;;;;;;8.63;70.42;101322.66;4906384;28;99442;-59
2021/10/14 06:07:39;;;;;;;;;;;;;;;8.63;70.68;101314.59;4922993;28;127850;-57
2021/10/14 06:10:06;;;;;;;;;;;;;;;8.64;70.28;101313.53;4923643;28;117744;-57
2021/10/14 06:12:32;;;;;;;;;;;;;;;8.66;70.56;101319.50;4923002;28;114683;-57
2021/10/14 06:14:58;;;;;;;;;;;;;;;8.66;70.31;101314.97;4923500;28;118002;-58
2021/10/14 06:17:24;;;;;;;;;;;;;;;8.68;70.13;101317.41;4923340;28;125674;-58
2021/10/14 06:19:49;;;;;;;;;;;;;;;8.68;70.66;101310.16;4924059;28;105952;-57
2021/10/14 06:22:15;;;;;;;;;;;;;;;8.72;70.27;101313.19;4923292;28;127054;-59
2021/10/14 06:24:41;;;;;;;;;;;;;;;8.75;70.38;101318.91;4923301;28;126182;-57
2021/10/14 06:27:07;;;;;;;;;;;;;;;8.77;70.52;101306.06;4922900;28;128100;-60
2021/10/14 06:29:33;;;;;;;;;;;;;;;8.81;70.44;101312.63;4924171;28;97784;-58
2021/10/14 06:31:59;;;;;;;;;;;;;;;8.84;70.44;101314.00;4923106;28;127937;-56
2021/10/14 06:34:25;;;;;;;;;;;;;;;8.86;70.55;101311.91;4923100;28;128183;-58
2021/10/14 06:36:51;;;;;;;;;;;;;;;8.88;70.53;101307.09;4922173;28;117493;-58
2021/10/14 06:39:17;;;;;;;;;;;;;;;8.92;70.59;101304.75;4923108;28;115051;-59
2021/10/14 06:41:43;;;;;;;;;;;;;;;8.96;70.29;101313.97;4922703;28;126672;-58
2021/10/14 06:44:09;;;;;;;;;;;;;;;8.99;69.98;101305.44;4924193;28;98381;-58
2021/10/14 06:46:38;;;;;;;;;;;;;;;9.01;70.09;101306.84;4923864;28;97997;-57
2021/10/14 06:49:04;;;;;;;;;;;;;;;9.06;70.66;101306.97;4903713;28;98121;-57
2021/10/14 06:51:31;;;;;;;;;;;;;;;9.13;70.13;101306.03;4908320;28;98125;-57
2021/10/14 06:53:56;;;;;;;;;;;;;;;9.18;70.50;101301.56;4923985;28;98380;-57
2021/10/14 06:56:22;;;;;;;;;;;;;;;9.21;70.21;101290.31;4923623;28;97962;-58
2021/10/14 06:58:48;;;;;;;;;;;;;;;9.23;69.88;101301.66;4922246;28;117735;-57
2021/10/14 07:01:15;;;;;;;;;;;;;;;9.26;69.78;101295.00;4921982;28;128095;-57
2021/10/14 07:03:41;;;;;;;;;;;;;;;9.28;70.43;101293.72;4922237;28;97905;-57
2021/10/14 07:06:07;;;;;;;;;;;;;;;9.29;70.47;101289.94;4923144;28;103892;-58
2021/10/14 07:08:33;;;;;;;;;;;;;;;9.29;70.20;101292.63;4923026;28;111907;-57
2021/10/14 07:10:59;;;;;;;;;;;;;;;9.31;70.33;101297.78;4922240;28;128045;-57
2021/10/14 07:13:25;;;;;;;;;;;;;;;9.32;70.16;101294.84;4922855;28;108127;-57
2021/10/14 07:15:51;;;;;;;;;;;;;;;9.34;70.11;101297.31;4922836;28;98574;-58
2021/10/14 07:18:17;;;;;;;;;;;;;;;9.39;70.75;101288.50;4923283;28;97885;-57
2021/10/14 07:20:43;;;;;;;;;;;;;;;9.43;70.61;101289.66;4921910;28;128075;-58
2021/10/14 07:23:10;;;;;;;;;;;;;;;9.46;70.48;101292.69;4921112;28;126204;-58
2021/10/14 07:25:36;;;;;;;;;;;;;;;9.49;70.38;101291.41;4922106;28;98594;-58
2021/10/14 07:28:02;;;;;;;;;;;;;;;9.51;69.94;101292.81;4923818;28;98272;-59
2021/10/14 07:30:28;;;;;;;;;;;;;;;9.55;70.48;101293.97;4923497;28;97860;-57
2021/10/14 07:32:54;;;;;;;;;;;;;;;9.58;70.41;101292.66;4920629;28;127930;-58
2021/10/14 07:35:20;;;;;;;;;;;;;;;9.62;70.07;101287.59;4921835;28;127562;-57
2021/10/14 07:37:46;;;;;;;;;;;;;;;9.64;70.12;101291.69;4922075;28;117636;-58
2021/10/14 07:40:12;;;;;;;;;;;;;;;9.72;69.73;101296.69;4922356;28;128131;-57
2021/10/14 07:42:39;;;;;;;;;;;;;;;9.78;69.86;101293.00;4903135;28;128079;-57
2021/10/14 07:45:05;;;;;;;;;;;;;;;9.83;70.28;101295.81;4923164;28;97961;-60
2021/10/14 07:47:31;;;;;;;;;;;;;;;9.86;70.21;101288.31;4921803;28;109051;-57
2021/10/14 07:49:57;;;;;;;;;;;;;;;9.90;69.99;101290.25;4922293;28;98234;-58
2021/10/14 07:52:23;;;;;;;;;;;;;;;9.96;70.19;101300.06;4921483;28;128073;-58
2021/10/14 07:54:49;;;;;;;;;;;;;;;10.02;70.26;101291.03;4921871;28;127813;-58
2021/10/14 07:57:15;;;;;;;;;;;;;;;10.11;70.04;101296.84;4922650;28;97891;-57
2021/10/14 07:59:42;;;;;;;;;;;;;;;10.15;70.12;101299.88;4921997;28;97901;-58
2021/10/14 08:02:08;;;;;;;;;;;;;;;10.18;70.01;101302.88;4922811;28;98891;-57
2021/10/14 08:04:34;;;;;;;;;;;;;;;10.21;69.84;101301.56;4921222;28;127591;-58
2021/10/14 08:07:00;;;;;;;;;;;;;;;10.20;69.75;101300.75;4921756;28;97853;-58
2021/10/14 08:09:27;;;;;;;;;;;;;;;10.20;70.12;101305.31;4922163;28;98406;-58
2021/10/14 08:11:53;;;;;;;;;;;;;;;10.20;69.52;101295.34;4920969;28;125662;-57
2021/10/14 08:14:19;;;;;;;;;;;;;;;10.22;69.87;101301.34;4921448;28;125841;-57
2021/10/14 08:16:45;;;;;;;;;;;;;;;10.22;70.09;101301.34;4921872;28;97809;-58
2021/10/14 08:19:10;;;;;;;;;;;;;;;10.23;70.33;101302.97;4922746;28;98171;-58
2021/10/14 08:21:36;;;;;;;;;;;;;;;10.25;70.16;101295.47;4921604;28;104162;-58
2021/10/14 08:24:02;;;;;;;;;;;;;;;10.28;70.31;101289.59;4919608;28;127868;-57
2021/10/14 08:26:28;;;;;;;;;;;;;;;10.31;70.36;101293.69;4921318;28;97921;-58
2021/10/14 08:28:54;;;;;;;;;;;;;;;10.32;69.80;101289.91;4921455;28;110294;-57
2021/10/14 08:31:23;;;;;;;;;;;;;;;10.34;70.21;101295.91;4922178;28;128608;-58
2021/10/14 08:33:49;;;;;;;;;;;;;;;10.33;70.00;101296.94;4921503;28;97989;-58
2021/10/14 08:36:15;;;;;;;;;;;;;;;10.32;70.45;101298.00;4922254;28;101584;-58
2021/10/14 08:38:41;;;;;;;;;;;;;;;10.30;70.43;101294.75;4922282;28;98066;-57
2021/10/14 08:41:08;;;;;;;;;;;;;;;10.28;70.56;101296.88;4921311;28;126395;-57
2021/10/14 08:43:35;;;;;;;;;;;;;;;10.27;70.28;101297.94;4921523;28;100443;-57
2021/10/14 08:46:02;;;;;;;;;;;;;;;10.26;70.83;101304.38;4922407;28;97868;-57
2021/10/14 08:48:28;;;;;;;;;;;;;;;10.24;70.63;101291.13;4902766;28;115648;-58
2021/10/14 08:50:54;;;;;;;;;;;;;;;10.28;70.26;101292.28;4920861;28;112251;-57
2021/10/14 08:53:20;;;;;;;;;;;;;;;10.38;70.19;101294.34;4921094;28;119346;-57
2021/10/14 08:55:46;;;;;;;;;;;;;;;10.42;70.03;101282.00;4922346;28;100732;-57
2021/10/14 08:58:12;;;;;;;;;;;;;;;10.45;70.67;101284.22;4936002;28;114205;-58
2021/10/14 09:00:40;;;;;;;;;;;;;;;10.49;69.75;101284.50;4921286;28;98977;-57
2021/10/14 09:03:26;;;;;;;;;;;;;;;10.48;70.41;101293.66;4921191;28;97827;-58
2021/10/14 09:05:52;;;;;;;;;;;;;;;10.48;70.57;101280.19;4921051;28;97869;-58
2021/10/14 09:08:41;;;;;;;;;;;;;;;10.49;70.51;101289.91;4920450;28;98082;-57
2021/10/14 09:11:11;;;;;;;;;;;;;;;10.51;70.54;101282.41;4922426;28;98227;-58
2021/10/14 09:14:02;;;;;;;;;;;;;;;10.67;70.39;101286.13;4918384;28;99019;-60
2021/10/14 09:16:30;;;;;;;;;;;;;;;10.72;70.26;101288.88;4921338;28;97706;-57
2021/10/14 09:19:16;;;;;;;;;;;;;;;10.72;70.35;101284.31;4921374;28;99300;-58
2021/10/14 09:21:44;;;;;;;;;;;;;;;10.73;70.07;101282.47;4921624;28;99366;-58
2021/10/14 09:24:37;;;;;;;;;;;;;;;10.74;70.49;101281.38;4921917;28;105530;-57
2021/10/14 09:27:08;;;;;;;;;;;;;;;10.74;70.08;101279.50;4900310;28;97913;-58
2021/10/14 09:29:37;;;;;;;;;;;;;;;10.75;70.69;101277.63;4916176;28;98132;-57
2021/10/14 09:32:07;;;;;;;;;;;;;;;10.77;70.49;101281.72;4909570;28;99004;-58
2021/10/14 09:34:35;;;;;;;;;;;;;;;10.80;70.57;101278.50;4921964;28;97922;-57
2021/10/14 09:37:03;;;;;;;;;;;;;;;10.80;70.74;101286.56;4923009;28;97933;-58
2021/10/14 09:39:29;;;;;;;;;;;;;;;10.84;70.22;101281.50;4923753;28;98938;-57
2021/10/14 09:41:57;;;;;;;;;;;;;;;10.88;70.32;101281.81;4906564;28;99224;-58
2021/10/14 09:44:23;;;;;;;;;;;;;;;10.94;70.16;101284.34;4924858;28;97870;-58
2021/10/14 09:46:51;;;;;;;;;;;;;;;10.96;70.42;101276.81;4923716;28;98113;-57
2021/10/14 09:49:30;;;;;;;;;;;;;;;10.99;70.35;101279.00;4924468;28;98565;-58
2021/10/14 09:51:59;;;;;;;;;;;;;;;11.03;70.32;101277.44;4924085;28;99275;-57
2021/10/14 09:54:26;;;;;;;;;;;;;;;11.07;70.05;101280.47;4925321;28;98303;-58
2021/10/14 09:56:52;;;;;;;;;;;;;;;11.11;70.12;101283.47;4924340;28;107815;-57
2021/10/14 09:59:18;;;;;;;;;;;;;;;11.13;70.03;101275.97;4924351;28;108722;-57
2021/10/14 10:01:44;;;;;;;;;;;;;;;11.16;70.16;101284.38;4922351;28;128326;-58
2021/10/14 10:04:10;;;;;;;;;;;;;;;11.20;70.02;101279.25;4924303;28;97892;-58
2021/10/14 10:06:37;;;;;;;;;;;;;;;11.22;70.57;101286.03;4924952;28;97793;-58
2021/10/14 10:09:15;;;;;;;;;;;;;;;11.26;70.26;101284.47;4905888;28;99196;-58
2021/10/14 10:11:45;;;;;;;;;;;;;;;11.27;70.25;101286.09;4890191;28;98204;-58
2021/10/14 10:14:11;;;;;;;;;;;;;;;11.27;70.06;101285.28;4907252;28;97868;-58
2021/10/14 10:16:37;;;;;;;;;;;;;;;11.29;70.01;101285.88;4906547;28;98038;-59
2021/10/14 10:19:06;;;;;;;;;;;;;;;11.33;69.87;101283.47;4923512;28;128199;-57
2021/10/14 10:21:31;;;;;;;;;;;;;;;11.31;70.03;101278.31;4938562;28;98903;-58
2021/10/14 10:24:01;;;;;;;;;;;;;;;11.30;69.97;101280.19;4924089;28;98282;-56
2021/10/14 10:26:36;;;;;;;;;;;;;;;11.26;70.44;101280.97;4923808;28;97778;-58
2021/10/14 10:29:03;;;;;;;;;;;;;;;11.22;70.12;101279.84;4909430;28;98174;-57
2021/10/14 10:31:56;;;;;;;;;;;;;;;11.21;70.28;101278.22;4923412;28;99218;-58
2021/10/14 10:34:43;;;;;;;;;;;;;;;11.21;70.59;101279.03;4923842;28;97837;-58
2021/10/14 10:37:28;;;;;;;;;;;;;;;11.22;70.71;101277.94;4923772;28;97974;-58
2021/10/14 10:39:55;;;;;;;;;;;;;;;11.23;70.77;101276.06;4924002;28;98534;-57
2021/10/14 10:42:26;;;;;;;;;;;;;;;11.23;70.67;101273.38;4923002;28;98481;-58
2021/10/14 10:44:52;;;;;;;;;;;;;;;11.24;70.68;101272.31;4923355;28;120520;-58
2021/10/14 10:47:37;;;;;;;;;;;;;;;11.23;70.74;101274.19;4923384;28;97820;-57
2021/10/14 10:50:04;;;;;;;;;;;;;;;11.25;70.53;101276.66;4924068;28;99024;-57
2021/10/14 10:52:32;;;;;;;;;;;;;;;11.22;70.36;101280.66;4922512;28;112884;-57
2021/10/14 10:55:01;;;;;;;;;;;;;;;11.23;70.55;101276.88;4923815;28;97989;-59
2021/10/14 10:57:54;;;;;;;;;;;;;;;11.22;70.69;101275.25;4905617;28;97912;-57
2021/10/14 11:00:21;;;;;;;;;;;;;;;11.24;70.80;101278.53;4923298;28;108708;-58
2021/10/14 11:03:06;;;;;;;;;;;;;;;11.22;70.85;101264.47;4922464;28;98990;-57
2021/10/14 11:05:52;;;;;;;;;;;;;;;11.25;70.60;101263.16;4923422;28;97929;-57
2021/10/14 11:08:21;;;;;;;;;;;;;;;11.28;70.66;101268.06;4924140;28;98159;-57
2021/10/14 11:10:57;;;;;;;;;;;;;;;11.36;70.41;101262.19;4923737;28;99072;-58
2021/10/14 11:13:24;;;;;;;;;;;;;;;11.38;70.37;101261.94;4922550;28;118875;-58
2021/10/14 11:15:52;;;;;;;;;;;;;;;11.38;70.66;101265.44;4924346;28;102993;-57
2021/10/14 11:18:19;;;;;;;;;;;;;;;11.40;70.56;101259.81;4922655;28;97941;-58
2021/10/14 11:20:52;;;;;;;;;;;;;;;11.43;70.31;101251.19;4922850;28;116077;-58
2021/10/14 11:23:18;;;;;;;;;;;;;;;11.49;70.25;101256.38;4922643;28;99041;-56
2021/10/14 11:25:44;;;;;;;;;;;;;;;11.57;70.68;101259.72;4922446;28;97803;-57
2021/10/14 11:28:11;;;;;;;;;;;;;;;11.64;70.09;101255.75;4887998;28;118706;-57
2021/10/14 11:30:42;;;;;;;;;;;;;;;11.74;70.07;101247.72;4924054;28;97675;-56
2021/10/14 11:33:13;;;;;;;;;;;;;;;11.84;70.31;101246.22;4922981;28;99177;-57
2021/10/14 11:35:39;;;;;;;;;;;;;;;11.93;70.00;101244.69;4923912;28;97735;-57
2021/10/14 11:38:14;;;;;;;;;;;;;;;11.96;69.79;101239.56;4921717;28;98441;-58
2021/10/14 11:40:40;;;;;;;;;;;;;;;12.01;70.02;101238.78;4888358;28;128462;-57
2021/10/14 11:43:06;;;;;;;;;;;;;;;12.04;69.75;101241.00;4922518;28;98384;-57
2021/10/14 11:45:32;;;;;;;;;;;;;;;12.03;70.21;101236.66;4922647;28;97927;-56
2021/10/14 11:47:58;;;;;;;;;;;;;;;12.05;69.93;101231.81;4922223;28;97847;-58
2021/10/14 11:50:25;;;;;;;;;;;;;;;12.08;69.92;101233.19;4922337;28;127630;-58
2021/10/14 11:53:03;;;;;;;;;;;;;;;12.12;70.12;101235.09;4922562;28;98513;-58
2021/10/14 11:55:30;;;;;;;;;;;;;;;12.21;69.58;101236.25;4922953;28;98825;-57
2021/10/14 11:57:59;;;;;;;;;;;;;;;12.28;69.77;101233.31;4922121;28;98034;-57
2021/10/14 12:00:25;;;;;;;;;;;;;;;12.38;69.50;101230.69;4922007;28;98883;-60
2021/10/14 12:02:51;;;;;;;;;;;;;;;12.36;69.72;101226.63;4920309;28;128459;-58
2021/10/14 12:05:17;;;;;;;;;;;;;;;12.31;70.08;101238.22;4904665;28;98401;-57
2021/10/14 12:07:43;;;;;;;;;;;;;;;12.24;70.15;101233.03;4935682;28;116291;-57
2021/10/14 12:10:31;;;;;;;;;;;;;;;12.18;70.07;101225.97;4905137;28;98418;-58
2021/10/14 12:13:04;;;;;;;;;;;;;;;12.13;70.22;101230.50;4904679;28;118304;-58
2021/10/14 12:15:30;;;;;;;;;;;;;;;12.06;70.50;101229.91;4922935;28;98020;-57
2021/10/14 12:17:56;;;;;;;;;;;;;;;12.01;70.34;101234.19;4921546;28;97784;-58
2021/10/14 12:20:23;;;;;;;;;;;;;;;11.95;70.50;101229.84;4936543;28;126914;-58
2021/10/14 12:22:51;;;;;;;;;;;;;;;11.92;70.67;101227.66;4922507;28;98101;-57
2021/10/14 12:25:26;;;;;;;;;;;;;;;11.89;70.85;101233.56;4922434;28;98526;-58
2021/10/14 12:27:56;;;;;;;;;;;;;;;11.84;70.67;101230.03;4921819;28;97814;-58
2021/10/14 12:30:28;;;;;;;;;;;;;;;11.78;70.69;101219.13;4922457;28;98385;-57
2021/10/14 12:32:56;;;;;;;;;;;;;;;11.73;71.11;101215.56;4921869;28;98509;-58
2021/10/14 12:35:24;;;;;;;;;;;;;;;11.68;71.10;101218.22;4912324;28;98154;-58
2021/10/14 12:38:01;;;;;;;;;;;;;;;11.67;71.13;101217.44;4904557;28;97990;-57
2021/10/14 12:40:28;;;;;;;;;;;;;;;11.69;71.06;101217.16;4921862;28;118672;-58